Huvudsida
METAR-TAF:

METAR-TAF

Flygplatser :

Wake Island, USA

latitud: 19-17N, longitud: 166-39E, höjd: 4 m

METAR: saknas

Tid: 08:20 (20:20 UTC)

Väderprognos

Denna rapport gjordes för 6 timmar och 20 minuter sedan, klockan 14:00 UTC
Prognos gäller från 21 kl. 14 UTC till 22 kl. 20 UTC
Vind 12 kt från nordost
Sikt 10 km eller mer
Spridda moln på en höjd av 2000 ft
skurar i närheten
Temporärt
från 21 kl. 14 UTC till 21 kl. 19 UTC
Sikt: 8000 m
Brutna moln på en höjd av 2000 ft
lätta regnskurar
Blir
från 22 kl. 02 UTC till 22 kl. 03 UTC
Vind 12 kt från ost/nordost
Sikt: 8000 m
Spridda moln på en höjd av 2000 ft
Brutna moln på en höjd av 3000 ft
lätta regnskurar

TAF: PWAK 211400Z 2114/2220 05012KT 9999 VCSH SCT020 QNH2972INS TEMPO 2114/2119 8000 -SHRA BKN020 BECMG 2202/2203 06012KT 8000 -SHRA SCT020 BKN030 QNH2970INS TX30/2200Z TN25/2114Z

Aktuella väderrapporter och prognoser från 4000 flygplatser (METAR- och TAF-rapporter).

De tillgängliga stationerna syns som gula och röda prickar på kartan.

För musen över prickarna för att se namnen på stationerna.

Klicka sedan för att få väderrapporter och prognoser.

För att ändra kartan: Klicka på de gröna knapparna med ett svart kors på för att zooma in; den gröna knappen med ett streck på för att zooma ut; eller på de gröna pilarna för angränsande kartor.


METAR-TAF: